createdAt,value
2018-11-12T00:01:17.228Z,9.50
2018-11-12T00:03:45.465Z,9.60
2018-11-12T00:06:13.739Z,9.60
2018-11-12T00:08:42.011Z,9.60
2018-11-12T00:11:10.278Z,9.60
2018-11-12T00:13:38.562Z,9.60
2018-11-12T00:16:06.844Z,9.60
2018-11-12T00:18:35.795Z,9.60
2018-11-12T00:21:04.064Z,9.60
2018-11-12T00:23:33.261Z,9.60
2018-11-12T00:26:01.518Z,9.60
2018-11-12T00:28:29.786Z,9.60
2018-11-12T00:30:58.029Z,9.60
2018-11-12T00:33:26.298Z,9.60
2018-11-12T00:35:54.586Z,9.60
2018-11-12T00:38:22.860Z,9.60
2018-11-12T00:40:51.106Z,9.60
2018-11-12T00:43:19.765Z,9.60
2018-11-12T00:45:48.039Z,9.60
2018-11-12T00:48:16.352Z,9.60
2018-11-12T00:50:44.610Z,9.60
2018-11-12T00:53:12.872Z,9.60
2018-11-12T00:55:41.148Z,9.60
2018-11-12T00:58:09.408Z,9.60
2018-11-12T01:00:37.669Z,9.60
2018-11-12T01:03:06.307Z,9.60
2018-11-12T01:05:34.582Z,9.70
2018-11-12T01:08:02.854Z,9.70
2018-11-12T01:10:31.379Z,9.70
2018-11-12T01:12:59.662Z,9.70
2018-11-12T01:15:27.910Z,9.70
2018-11-12T01:17:56.211Z,9.70
2018-11-12T01:20:24.465Z,9.60
2018-11-12T01:22:53.509Z,9.70
2018-11-12T01:25:21.751Z,9.70
2018-11-12T01:27:49.997Z,9.70
2018-11-12T01:30:18.948Z,9.70
2018-11-12T01:32:47.734Z,9.70
2018-11-12T01:35:17.198Z,9.70
2018-11-12T01:37:45.776Z,9.70
2018-11-12T01:40:14.868Z,9.70
2018-11-12T01:42:43.544Z,9.70
2018-11-12T01:45:15.756Z,9.70
2018-11-12T01:47:45.638Z,9.70
2018-11-12T01:50:20.499Z,9.70
2018-11-12T01:52:49.525Z,9.70
2018-11-12T01:55:19.046Z,9.70
2018-11-12T01:57:47.316Z,9.70
2018-11-12T02:00:18.474Z,9.70
2018-11-12T02:02:50.696Z,9.70
2018-11-12T02:05:19.340Z,9.70
2018-11-12T02:07:47.606Z,9.70
2018-11-12T02:10:17.005Z,9.70
2018-11-12T02:12:45.279Z,9.70
2018-11-12T02:15:15.501Z,9.70
2018-11-12T02:17:45.051Z,9.70
2018-11-12T02:20:14.650Z,9.70
2018-11-12T02:22:44.729Z,9.70
2018-11-12T02:25:13.525Z,9.80
2018-11-12T02:27:41.815Z,9.80
2018-11-12T02:30:13.365Z,9.80
2018-11-12T02:32:41.623Z,9.80
2018-11-12T02:35:10.098Z,9.80
2018-11-12T02:37:38.888Z,9.90
2018-11-12T02:40:09.382Z,9.90
2018-11-12T02:42:38.162Z,9.90
2018-11-12T02:45:12.055Z,9.90
2018-11-12T02:47:41.641Z,9.90
2018-11-12T02:50:12.141Z,9.90
2018-11-12T02:52:40.662Z,10.00
2018-11-12T02:55:11.006Z,10.00
2018-11-12T02:57:39.938Z,10.00
2018-11-12T03:00:14.062Z,10.00
2018-11-12T03:02:42.979Z,10.00
2018-11-12T03:05:12.049Z,10.10
2018-11-12T03:07:40.559Z,10.10
2018-11-12T03:10:22.371Z,10.10
2018-11-12T03:12:50.632Z,10.10
2018-11-12T03:15:19.705Z,10.10
2018-11-12T03:17:48.595Z,10.20
2018-11-12T03:20:19.233Z,10.20
2018-11-12T03:22:47.539Z,10.20
2018-11-12T03:25:17.100Z,10.20
2018-11-12T03:27:46.236Z,10.20
2018-11-12T03:30:15.807Z,10.20
2018-11-12T03:32:44.902Z,10.30
2018-11-12T03:35:13.628Z,10.30
2018-11-12T03:37:43.081Z,10.30
2018-11-12T03:40:14.221Z,10.30
2018-11-12T03:42:42.728Z,10.30
2018-11-12T03:45:15.702Z,10.30
2018-11-12T03:47:43.955Z,10.30
2018-11-12T03:50:14.303Z,10.30
2018-11-12T03:52:42.979Z,10.30
2018-11-12T03:55:12.468Z,10.40
2018-11-12T03:57:40.748Z,10.40
2018-11-12T04:00:17.135Z,10.40
2018-11-12T04:02:45.376Z,10.40
2018-11-12T04:05:13.653Z,10.40
2018-11-12T04:07:42.586Z,10.40
2018-11-12T04:10:13.381Z,10.40
2018-11-12T04:12:41.686Z,10.40
2018-11-12T04:15:12.780Z,10.50
2018-11-12T04:17:41.043Z,10.50
2018-11-12T04:20:10.831Z,10.50
2018-11-12T04:22:40.203Z,10.50
2018-11-12T04:25:09.915Z,10.50
2018-11-12T04:27:38.609Z,10.50
2018-11-12T04:30:10.151Z,10.50
2018-11-12T04:32:38.397Z,10.60
2018-11-12T04:35:07.742Z,10.60
2018-11-12T04:37:36.031Z,10.60
2018-11-12T04:40:04.312Z,10.60
2018-11-12T04:42:32.576Z,10.60
2018-11-12T04:45:00.855Z,10.60
2018-11-12T04:47:29.147Z,10.60
2018-11-12T04:49:57.686Z,10.60
2018-11-12T04:52:26.387Z,10.60
2018-11-12T04:54:55.065Z,10.60
2018-11-12T04:57:23.311Z,10.60
2018-11-12T04:59:51.581Z,10.60
2018-11-12T05:02:19.854Z,10.70
2018-11-12T05:04:48.272Z,10.70
2018-11-12T05:07:16.600Z,10.70
2018-11-12T05:09:44.816Z,10.70
2018-11-12T05:12:13.097Z,10.70
2018-11-12T05:14:41.346Z,10.70
2018-11-12T05:17:09.624Z,10.70
2018-11-12T05:19:37.917Z,10.70
2018-11-12T05:22:06.197Z,10.70
2018-11-12T05:24:34.499Z,10.70
2018-11-12T05:27:03.116Z,10.70
2018-11-12T05:29:31.365Z,10.70
2018-11-12T05:31:59.610Z,10.60
2018-11-12T05:34:27.846Z,10.60
2018-11-12T05:36:56.115Z,10.70
2018-11-12T05:39:24.387Z,10.70
2018-11-12T05:41:52.639Z,10.70
2018-11-12T05:44:20.902Z,10.70
2018-11-12T05:46:49.199Z,10.70
2018-11-12T05:49:18.107Z,10.70
2018-11-12T05:51:46.377Z,10.70
2018-11-12T05:54:15.637Z,10.70
2018-11-12T05:56:43.876Z,10.70
2018-11-12T05:59:12.692Z,10.70
2018-11-12T06:01:40.971Z,10.70
2018-11-12T06:04:09.446Z,10.70
2018-11-12T06:06:37.722Z,10.70
2018-11-12T06:09:11.234Z,10.70
2018-11-12T06:11:39.659Z,10.70
2018-11-12T06:14:08.516Z,10.70
2018-11-12T06:16:36.853Z,10.70
2018-11-12T06:19:06.094Z,10.70
2018-11-12T06:21:35.298Z,10.70
2018-11-12T06:24:04.008Z,10.70
2018-11-12T06:26:32.272Z,10.70
2018-11-12T06:29:00.530Z,10.80
2018-11-12T06:31:28.779Z,10.80
2018-11-12T06:33:57.027Z,10.80
2018-11-12T06:36:25.411Z,10.80
2018-11-12T06:38:54.802Z,10.80
2018-11-12T06:41:23.897Z,10.80
2018-11-12T06:43:52.250Z,10.80
2018-11-12T06:46:21.240Z,10.80
2018-11-12T06:48:50.498Z,10.80
2018-11-12T06:51:19.313Z,10.80
2018-11-12T06:53:47.691Z,10.90
2018-11-12T06:56:16.084Z,10.80
2018-11-12T06:58:44.342Z,10.80
2018-11-12T07:01:12.605Z,10.80
2018-11-12T07:03:40.910Z,10.80
2018-11-12T07:06:09.163Z,10.90
2018-11-12T07:08:37.419Z,10.90
2018-11-12T07:11:05.663Z,10.90
2018-11-12T07:13:33.913Z,10.90
2018-11-12T07:16:02.191Z,10.90
2018-11-12T07:18:30.432Z,10.90
2018-11-12T07:20:58.688Z,11.00
2018-11-12T07:23:26.986Z,11.00
2018-11-12T07:25:55.238Z,11.00
2018-11-12T07:28:23.611Z,11.00
2018-11-12T07:30:51.972Z,11.00
2018-11-12T07:33:20.155Z,11.00
2018-11-12T07:35:48.411Z,11.00
2018-11-12T07:38:16.715Z,11.00
2018-11-12T07:40:44.957Z,11.00
2018-11-12T07:43:13.216Z,11.00
2018-11-12T07:45:41.478Z,11.00
2018-11-12T07:48:10.166Z,11.00
2018-11-12T07:50:38.426Z,11.00
2018-11-12T07:53:06.684Z,11.00
2018-11-12T07:55:34.954Z,11.10
2018-11-12T07:58:03.218Z,11.10
2018-11-12T08:00:32.915Z,11.10
2018-11-12T08:03:09.655Z,11.10
2018-11-12T08:05:38.312Z,11.10
2018-11-12T08:08:06.824Z,11.10
2018-11-12T08:10:35.094Z,11.20
2018-11-12T08:13:03.388Z,11.20
2018-11-12T08:15:31.667Z,11.20
2018-11-12T08:17:59.942Z,11.20
2018-11-12T08:20:28.255Z,11.20
2018-11-12T08:22:57.521Z,11.30
2018-11-12T08:25:25.807Z,11.30
2018-11-12T08:27:54.048Z,11.30
2018-11-12T08:30:24.749Z,11.30
2018-11-12T08:32:54.607Z,11.30
2018-11-12T08:35:22.853Z,11.40
2018-11-12T08:37:51.726Z,11.40
2018-11-12T08:40:21.575Z,11.40
2018-11-12T08:42:49.793Z,11.50
2018-11-12T08:45:18.067Z,11.50
2018-11-12T08:47:47.928Z,11.50
2018-11-12T08:50:17.821Z,11.50
2018-11-12T08:52:47.144Z,11.50
2018-11-12T08:55:16.963Z,11.50
2018-11-12T08:57:46.873Z,11.50
2018-11-12T09:00:15.466Z,11.50
2018-11-12T09:02:43.773Z,11.60
2018-11-12T09:05:13.326Z,11.60
2018-11-12T09:07:42.815Z,11.60
2018-11-12T09:10:12.908Z,11.60
2018-11-12T09:12:41.932Z,11.70
2018-11-12T09:15:11.024Z,11.70
2018-11-12T09:17:40.367Z,11.80
2018-11-12T09:20:10.429Z,11.80
2018-11-12T09:22:38.735Z,11.90
2018-11-12T09:25:09.489Z,11.90
2018-11-12T09:27:39.128Z,11.90
2018-11-12T09:30:10.444Z,11.90
2018-11-12T09:32:39.471Z,11.90
2018-11-12T09:35:08.816Z,11.90
2018-11-12T09:37:37.304Z,11.90
2018-11-12T09:40:08.636Z,11.90
2018-11-12T09:42:37.006Z,11.90
2018-11-12T09:45:15.788Z,11.90
2018-11-12T09:47:44.559Z,11.90
2018-11-12T09:50:15.588Z,12.00
2018-11-12T09:52:45.169Z,12.00
2018-11-12T09:55:14.077Z,12.00
2018-11-12T09:57:43.347Z,12.00
2018-11-12T10:00:15.529Z,12.00
2018-11-12T10:02:45.784Z,12.10
2018-11-12T10:05:15.704Z,12.10
2018-11-12T10:07:45.702Z,12.10
2018-11-12T10:10:30.504Z,12.20
2018-11-12T10:12:58.428Z,12.20
2018-11-12T10:15:27.879Z,12.30
2018-11-12T10:17:55.823Z,12.30
2018-11-12T10:20:22.454Z,12.40
2018-11-12T10:22:51.742Z,12.40
2018-11-12T10:25:20.782Z,12.40
2018-11-12T10:27:49.486Z,12.40
2018-11-12T10:30:17.842Z,12.40
2018-11-12T10:32:46.077Z,12.40
2018-11-12T10:35:14.363Z,12.40
2018-11-12T10:37:42.678Z,12.50
2018-11-12T10:40:14.847Z,12.50
2018-11-12T10:42:43.633Z,12.60
2018-11-12T10:45:14.419Z,12.70
2018-11-12T10:47:42.734Z,12.80
2018-11-12T10:50:10.981Z,12.90
2018-11-12T10:52:39.236Z,12.90
2018-11-12T10:55:09.424Z,12.90
2018-11-12T10:57:37.561Z,13.00
2018-11-12T11:00:17.840Z,13.10
2018-11-12T11:02:51.490Z,13.20
2018-11-12T11:05:19.775Z,13.20
2018-11-12T11:07:48.429Z,13.20
2018-11-12T11:10:16.747Z,13.20
2018-11-12T11:12:45.702Z,13.20
2018-11-12T11:15:14.715Z,13.20
2018-11-12T11:17:43.423Z,13.20
2018-11-12T11:20:11.945Z,13.20
2018-11-12T11:22:40.198Z,13.30
2018-11-12T11:25:08.508Z,13.30
2018-11-12T11:27:37.423Z,13.30
2018-11-12T11:30:08.494Z,13.30
2018-11-12T11:32:36.822Z,13.30
2018-11-12T11:35:05.688Z,13.40
2018-11-12T11:37:34.005Z,13.40
2018-11-12T11:40:02.270Z,13.40
2018-11-12T11:42:30.539Z,13.40
2018-11-12T11:44:58.800Z,13.50
2018-11-12T11:47:27.195Z,13.50
2018-11-12T11:49:55.401Z,13.50
2018-11-12T11:52:23.684Z,13.50
2018-11-12T11:54:51.936Z,13.50
2018-11-12T11:57:20.267Z,13.40
2018-11-12T11:59:48.447Z,13.30
2018-11-12T12:02:16.787Z,13.30
2018-11-12T12:04:44.970Z,13.30
2018-11-12T12:07:13.229Z,13.30
2018-11-12T12:09:41.507Z,13.30
2018-11-12T12:12:09.761Z,13.30
2018-11-12T12:14:38.035Z,13.30
2018-11-12T12:17:06.282Z,13.30
2018-11-12T12:19:34.620Z,13.20
2018-11-12T12:22:02.882Z,13.30
2018-11-12T12:24:31.243Z,13.40
2018-11-12T12:26:59.497Z,13.30
2018-11-12T12:29:28.717Z,13.30
2018-11-12T12:31:57.076Z,13.30
2018-11-12T12:34:26.065Z,13.30
2018-11-12T12:36:54.508Z,13.30
2018-11-12T12:39:22.734Z,13.30
2018-11-12T12:41:51.000Z,13.20
2018-11-12T12:44:19.335Z,13.10
2018-11-12T12:46:47.563Z,13.10
2018-11-12T12:49:16.354Z,13.00
2018-11-12T12:51:44.598Z,13.00
2018-11-12T12:54:13.500Z,13.10
2018-11-12T12:56:41.787Z,13.10
2018-11-12T12:59:10.044Z,13.10
2018-11-12T13:01:38.395Z,13.20
2018-11-12T13:04:06.602Z,13.30
2018-11-12T13:06:34.926Z,13.30
2018-11-12T13:09:06.514Z,13.20
2018-11-12T13:11:34.766Z,13.20
2018-11-12T13:14:03.177Z,13.20
2018-11-12T13:16:31.351Z,13.20
2018-11-12T13:18:59.611Z,13.20
2018-11-12T13:21:27.947Z,13.10
2018-11-12T13:23:56.176Z,13.10
2018-11-12T13:26:24.436Z,13.10
2018-11-12T13:28:52.729Z,13.10
2018-11-12T13:31:21.206Z,13.10
2018-11-12T13:33:49.625Z,13.00
2018-11-12T13:36:17.910Z,13.00
2018-11-12T13:38:46.464Z,13.00
2018-11-12T13:41:15.178Z,13.00
2018-11-12T13:43:43.438Z,13.00
2018-11-12T13:46:11.676Z,13.00
2018-11-12T13:48:40.124Z,12.90
2018-11-12T13:51:08.671Z,12.90
2018-11-12T13:53:37.423Z,12.90
2018-11-12T13:56:06.239Z,12.90
2018-11-12T13:58:34.527Z,12.90
2018-11-12T14:01:02.841Z,12.90
2018-11-12T14:03:31.214Z,12.90
2018-11-12T14:05:59.540Z,12.90
2018-11-12T14:08:27.828Z,12.90
2018-11-12T14:10:56.105Z,12.90
2018-11-12T14:13:24.383Z,13.00
2018-11-12T14:15:52.680Z,13.00
2018-11-12T14:18:20.966Z,13.00
2018-11-12T14:20:49.246Z,13.00
2018-11-12T14:23:17.556Z,13.00
2018-11-12T14:25:45.850Z,13.00
2018-11-12T14:28:14.425Z,12.90
2018-11-12T14:30:42.711Z,13.00
2018-11-12T14:33:11.176Z,12.90
2018-11-12T14:35:39.579Z,12.90
2018-11-12T14:38:07.824Z,12.80
2018-11-12T14:40:36.086Z,12.80
2018-11-12T14:43:04.372Z,12.80
2018-11-12T14:45:32.615Z,12.70
2018-11-12T14:48:00.919Z,12.60
2018-11-12T14:50:29.224Z,12.60
2018-11-12T14:52:57.511Z,12.60
2018-11-12T14:55:25.816Z,12.60
2018-11-12T14:57:54.094Z,12.60
2018-11-12T15:00:23.890Z,12.60
2018-11-12T15:02:52.846Z,12.60
2018-11-12T15:05:22.543Z,12.60
2018-11-12T15:07:51.189Z,12.50
2018-11-12T15:10:19.618Z,12.50
2018-11-12T15:12:48.519Z,12.50
2018-11-12T15:15:16.789Z,12.50
2018-11-12T15:17:45.258Z,12.50
2018-11-12T15:20:17.112Z,12.50
2018-11-12T15:22:46.028Z,12.40
2018-11-12T15:25:16.056Z,12.40
2018-11-12T15:27:44.610Z,12.40
2018-11-12T15:30:15.552Z,12.30
2018-11-12T15:32:44.814Z,12.30
2018-11-12T15:35:13.670Z,12.30
2018-11-12T15:37:43.046Z,12.30
2018-11-12T15:40:12.072Z,12.20
2018-11-12T15:42:41.027Z,12.20
2018-11-12T15:45:16.209Z,12.20
2018-11-12T15:47:45.396Z,12.20
2018-11-12T15:50:19.587Z,12.20
2018-11-12T15:52:47.874Z,12.10
2018-11-12T15:55:16.138Z,12.00
2018-11-12T15:57:44.557Z,12.10
2018-11-12T16:00:15.471Z,12.00
2018-11-12T16:02:43.717Z,11.90
2018-11-12T16:05:13.163Z,11.80
2018-11-12T16:07:41.593Z,11.70
2018-11-12T16:10:12.613Z,11.60
2018-11-12T16:12:41.247Z,11.60
2018-11-12T16:15:11.401Z,11.50
2018-11-12T16:17:40.264Z,11.50
2018-11-12T16:20:12.407Z,11.40
2018-11-12T16:22:40.683Z,11.40
2018-11-12T16:25:09.296Z,11.30
2018-11-12T16:27:37.587Z,11.30
2018-11-12T16:30:07.136Z,11.30
2018-11-12T16:32:35.516Z,11.20
2018-11-12T16:35:04.492Z,11.10
2018-11-12T16:37:32.864Z,11.10
2018-11-12T16:40:01.127Z,11.00
2018-11-12T16:42:29.381Z,11.00
2018-11-12T16:44:57.672Z,10.90
2018-11-12T16:47:26.022Z,10.90
2018-11-12T16:49:54.618Z,10.90
2018-11-12T16:52:22.902Z,10.80
2018-11-12T16:54:51.244Z,10.80
2018-11-12T16:57:20.161Z,10.70
2018-11-12T16:59:48.418Z,10.70
2018-11-12T17:02:16.716Z,10.60
2018-11-12T17:04:44.999Z,10.60
2018-11-12T17:07:13.251Z,10.50
2018-11-12T17:09:41.502Z,10.50
2018-11-12T17:12:09.871Z,10.50
2018-11-12T17:14:38.129Z,10.50
2018-11-12T17:17:07.029Z,10.40
2018-11-12T17:19:35.293Z,10.40
2018-11-12T17:22:04.319Z,10.40
2018-11-12T17:24:32.600Z,10.40
2018-11-12T17:27:00.844Z,10.40
2018-11-12T17:29:29.254Z,10.40
2018-11-12T17:31:57.588Z,10.30
2018-11-12T17:34:26.466Z,10.30
2018-11-12T17:36:54.811Z,10.20
2018-11-12T17:39:24.115Z,10.20
2018-11-12T17:41:52.385Z,10.20
2018-11-12T17:44:20.658Z,10.20
2018-11-12T17:46:49.057Z,10.20
2018-11-12T17:49:18.248Z,10.20
2018-11-12T17:51:46.520Z,10.10
2018-11-12T17:54:15.317Z,10.10
2018-11-12T17:56:43.620Z,10.10
2018-11-12T17:59:11.901Z,10.10
2018-11-12T18:01:40.300Z,10.10
2018-11-12T18:04:08.443Z,10.10
2018-11-12T18:06:36.762Z,10.10
2018-11-12T18:09:13.339Z,10.10
2018-11-12T18:11:41.824Z,10.10
2018-11-12T18:14:11.452Z,10.10
2018-11-12T18:16:40.594Z,10.10
2018-11-12T18:19:09.698Z,10.10
2018-11-12T18:21:38.031Z,10.10
2018-11-12T18:24:06.416Z,10.10
2018-11-12T18:26:34.738Z,10.10
2018-11-12T18:29:03.039Z,10.10
2018-11-12T18:31:31.853Z,10.20
2018-11-12T18:34:00.094Z,10.20
2018-11-12T18:36:28.448Z,10.20
2018-11-12T18:38:56.730Z,10.20
2018-11-12T18:41:25.025Z,10.20
2018-11-12T18:43:53.307Z,10.20
2018-11-12T18:46:21.645Z,10.20
2018-11-12T18:48:49.937Z,10.20
2018-11-12T18:51:18.270Z,10.20
2018-11-12T18:53:46.549Z,10.20
2018-11-12T18:56:14.865Z,10.20
2018-11-12T18:58:43.181Z,10.20
2018-11-12T19:01:11.471Z,10.20
2018-11-12T19:03:40.092Z,10.20
2018-11-12T19:06:08.654Z,10.20
2018-11-12T19:08:36.933Z,10.10
2018-11-12T19:11:06.284Z,10.10
2018-11-12T19:13:34.567Z,10.10
2018-11-12T19:16:03.053Z,10.10
2018-11-12T19:18:31.475Z,10.10
2018-11-12T19:20:59.942Z,10.10
2018-11-12T19:23:28.314Z,10.10
2018-11-12T19:25:56.619Z,10.10
2018-11-12T19:28:24.890Z,10.10
2018-11-12T19:30:53.192Z,10.10
2018-11-12T19:33:21.467Z,10.10
2018-11-12T19:35:50.043Z,10.10
2018-11-12T19:38:18.337Z,10.10
2018-11-12T19:40:46.671Z,10.10
2018-11-12T19:43:14.954Z,10.10
2018-11-12T19:45:43.238Z,10.40
2018-11-12T19:48:11.555Z,10.30
2018-11-12T19:50:39.850Z,10.30
2018-11-12T19:53:08.133Z,10.20
2018-11-12T19:55:36.458Z,10.20
2018-11-12T19:58:04.737Z,10.20
2018-11-12T20:00:33.650Z,10.20
2018-11-12T20:03:02.555Z,10.10
2018-11-12T20:05:30.851Z,10.10
2018-11-12T20:07:59.146Z,10.10
2018-11-12T20:10:27.478Z,10.10
2018-11-12T20:12:55.783Z,10.10
2018-11-12T20:15:24.993Z,10.10
2018-11-12T20:17:53.877Z,10.10
2018-11-12T20:20:24.774Z,10.10
2018-11-12T20:22:53.357Z,10.10
2018-11-12T20:25:22.180Z,10.00
2018-11-12T20:27:51.586Z,10.00
2018-11-12T20:30:25.796Z,10.00
2018-11-12T20:32:54.053Z,10.00
2018-11-12T20:35:22.404Z,10.00
2018-11-12T20:37:50.717Z,10.00
2018-11-12T20:40:19.023Z,10.00
2018-11-12T20:42:48.372Z,10.00
2018-11-12T20:45:18.190Z,10.00
2018-11-12T20:47:47.900Z,10.00
2018-11-12T20:50:16.884Z,10.10
2018-11-12T20:52:45.619Z,10.10
2018-11-12T20:55:15.288Z,10.00
2018-11-12T20:57:44.182Z,10.00
2018-11-12T21:00:15.042Z,10.00
2018-11-12T21:02:44.864Z,10.00
2018-11-12T21:05:14.242Z,10.00
2018-11-12T21:07:43.176Z,10.00
2018-11-12T21:10:13.543Z,10.00
2018-11-12T21:12:41.826Z,10.00
2018-11-12T21:15:11.807Z,10.00
2018-11-12T21:17:40.193Z,10.00
2018-11-12T21:20:10.843Z,10.00
2018-11-12T21:22:39.617Z,10.00
2018-11-12T21:25:09.259Z,10.00
2018-11-12T21:27:37.913Z,9.90
2018-11-12T21:30:08.861Z,9.90
2018-11-12T21:32:37.172Z,9.90
2018-11-12T21:35:06.425Z,9.90
2018-11-12T21:37:34.807Z,9.90
2018-11-12T21:40:03.305Z,9.90
2018-11-12T21:42:31.798Z,9.90
2018-11-12T21:45:00.060Z,9.90
2018-11-12T21:47:28.355Z,9.90
2018-11-12T21:49:56.755Z,9.90
2018-11-12T21:52:25.845Z,9.90
2018-11-12T21:54:54.497Z,9.90
2018-11-12T21:57:23.112Z,9.90
2018-11-12T21:59:51.472Z,9.90
2018-11-12T22:02:19.698Z,9.90
2018-11-12T22:04:47.953Z,9.80
2018-11-12T22:07:16.208Z,9.80
2018-11-12T22:09:44.540Z,9.80
2018-11-12T22:12:12.783Z,9.80
2018-11-12T22:14:41.129Z,9.80
2018-11-12T22:17:09.913Z,9.80
2018-11-12T22:19:38.379Z,9.80
2018-11-12T22:22:06.534Z,9.80
2018-11-12T22:24:34.780Z,9.80
2018-11-12T22:29:41.990Z,9.70
2018-11-12T22:32:10.245Z,9.70
2018-11-12T22:34:38.490Z,9.70
2018-11-12T22:37:06.901Z,9.70
2018-11-12T22:39:35.403Z,9.70
2018-11-12T22:42:03.666Z,9.70
2018-11-12T22:44:32.197Z,9.70
2018-11-12T22:47:00.458Z,9.70
2018-11-12T22:49:29.002Z,9.70
2018-11-12T22:51:57.298Z,9.70
2018-11-12T22:54:25.548Z,9.70
2018-11-12T22:56:53.790Z,9.70
2018-11-12T22:59:22.050Z,9.70
2018-11-12T23:01:50.416Z,9.70
2018-11-12T23:04:18.667Z,9.70
2018-11-12T23:06:46.914Z,9.70
2018-11-12T23:09:19.203Z,9.70
2018-11-12T23:11:47.487Z,9.70
2018-11-12T23:14:16.671Z,9.70
2018-11-12T23:16:45.197Z,9.70
2018-11-12T23:19:13.487Z,9.70
2018-11-12T23:21:41.967Z,9.70
2018-11-12T23:24:10.220Z,9.70
2018-11-12T23:26:38.762Z,9.70
2018-11-12T23:29:07.437Z,9.70
2018-11-12T23:31:35.739Z,9.70
2018-11-12T23:34:04.841Z,9.70
2018-11-12T23:36:33.106Z,9.70
2018-11-12T23:39:01.351Z,9.70
2018-11-12T23:41:29.618Z,9.70
2018-11-12T23:43:57.879Z,9.70
2018-11-12T23:46:26.157Z,9.70
2018-11-12T23:48:54.409Z,9.70
2018-11-12T23:51:22.650Z,9.70
2018-11-12T23:53:50.896Z,9.70
2018-11-12T23:56:19.175Z,9.70
2018-11-12T23:58:47.414Z,9.70
